• Join FlightAware (Why Join?)
  • Login
  • US Flag 
08:38PM EDT


 

Airport Tracker/Info


-or-


 

Live Flight TrackerFlight Track Log ✈ PDT4130 ✈ 27-Apr-2012 ✈ KPHL - KELM

Flight Track Log - Related Links

Times and Time Zones

All times are in EDT time to prevent confusion due to time zone crossing. See the PDT4130 flight status page for this flight to view local times or setup timezone preferences in your user account.

Time Position Orientation Groundspeed Altitude Reporting Facility
EDT Latitude Longitude Course Direction KTS MPH feet Rate Location/Type
09:56PM 39.8837 -75.2491 340° North  Level FlightAware Approximate
09:57PM 39.9260 -75.2880 138° Southeast  Level FlightAware Approximate
09:57PM 39.8997 -75.2567 291° West 128 147 1,400  Level FAA TRACON SMA TRACON (SMA)
09:58PM 39.9094 -75.2897 287° West 145 167 2,400 1,620 Climbing FAA TRACON SMA TRACON (SMA)
09:59PM 39.9178 -75.3244 287° West 145 167 3,600 1,560 Climbing FAA TRACON SMA TRACON (SMA)
09:59PM 39.9247 -75.3542 287° West 143 165 4,500 1,620 Climbing FAA TRACON SMA TRACON (SMA)
10:00PM 39.9325 -75.3878 292° West 136 157 5,800 1,740 Climbing FAA TRACON SMA TRACON (SMA)
10:01PM 39.9422 -75.4197 296° West 138 159 6,900 1,620 Climbing FAA TRACON SMA TRACON (SMA)
10:01PM 39.9528 -75.4481 306° West 140 161 8,000 1,500 Climbing FAA TRACON SMA TRACON (SMA)
10:02PM 39.9681 -75.4756 347° North 158 182 8,900 720 Climbing FAA TRACON SMA TRACON (SMA)
10:03PM 40.0008 -75.4853 343° North 186 214 9,000 60 Climbing FAA TRACON SMA TRACON (SMA)
10:03PM 40.0378 -75.4997 336° Northwest 196 226 9,000 120 Level FAA TRACON SMA TRACON (SMA)
10:04PM 40.0689 -75.5181 347° North 198 228 9,200 660 Climbing FAA TRACON SMA TRACON (SMA)
10:05PM 40.1044 -75.5292 355° North 182 209 9,900 960 Climbing FAA TRACON SMA TRACON (SMA)
10:05PM 40.1350 -75.5328 355° North 182 209 10,500 960 Climbing FAA TRACON SMA TRACON (SMA)
10:06PM 40.1683 -75.5367 351° North 174 200 11,200 1,020 Climbing FAA TRACON SMA TRACON (SMA)
10:07PM 40.2006 -75.5436 345° North 166 191 11,900 600 Climbing FAA TRACON SMA TRACON (SMA)
10:07PM 40.2278 -75.5533 331° Northwest 167 192 12,000 60 Climbing FAA TRACON SMA TRACON (SMA)
10:08PM 40.2594 -75.5764 324° Northwest 192 221 12,000  Level FAA TRACON SMA TRACON (SMA)
10:09PM 40.2878 -75.6033 325° Northwest 193 222 12,000  Level FAA TRACON SMA TRACON (SMA)
10:09PM 40.3169 -75.6300 336° Northwest 198 228 12,000  Level FAA TRACON SMA TRACON (SMA)
10:10PM 40.3542 -75.6519 337° Northwest 210 242 12,000  Level FAA TRACON SMA TRACON (SMA)
10:11PM 40.3900 -75.6717 333° Northwest 211 243 12,000  Level FAA TRACON SMA TRACON (SMA)
10:11PM 40.4192 -75.6914 333° Northwest 207 238 12,000  Level FAA TRACON SMA TRACON (SMA)
10:12PM 40.4600 -75.7192 333° Northwest 205 236 12,000  Level New York Center
10:13PM 40.5106 -75.7528 333° Northwest 205 236 12,000  Level New York Center
10:14PM 40.5572 -75.7836 329° Northwest 205 236 12,000  Level New York Center
10:15PM 40.6056 -75.8225 333° Northwest 205 236 12,000  Level New York Center
10:16PM 40.6644 -75.8625 331° Northwest 205 236 12,000  Level New York Center
10:17PM 40.7147 -75.8992 333° Northwest 205 236 12,000  Level New York Center
10:18PM 40.7656 -75.9331 336° Northwest 205 236 12,000  Level New York Center
10:19PM 40.8203 -75.9647 330° Northwest 205 236 12,000  Level New York Center
10:20PM 40.8686 -76.0011 331° Northwest 205 236 12,000  Level New York Center
10:21PM 40.9192 -76.0381 335° Northwest 205 236 12,000  Level New York Center
10:22PM 40.9658 -76.0664 335° Northwest 199 229 12,000  Level New York Center
10:23PM 41.0164 -76.0978 328° Northwest 199 229 12,000  Level New York Center
10:24PM 41.0647 -76.1375 337° Northwest 199 229 12,000  Level New York Center
10:25PM 41.1217 -76.1694 333° Northwest 199 229 12,000  Level New York Center
10:26PM 41.1722 -76.2039 333° Northwest 199 229 12,000  Level New York Center
10:27PM 41.2228 -76.2383 335° Northwest 199 229 12,000 -60 Level New York Center
10:28PM 41.2692 -76.2669 330° Northwest 199 229 11,900 -480 Descending New York Center
10:29PM 41.3214 -76.3069 329° Northwest 206 237 11,100 -480 Descending New York Center
10:30PM 41.3797 -76.3533 336° Northwest 213 245 11,000 -60 Descending New York Center
10:31PM 41.4325 -76.3853 333° Northwest 213 245 11,000  Level New York Center
10:32PM 41.4789 -76.4169 330° Northwest 208 239 11,000  Level New York Center
10:33PM 41.5269 -76.4542 335° Northwest 203 234 11,000  Level New York Center
10:34PM 41.5836 -76.4894 331° Northwest 196 226 11,000  Level New York Center
10:35PM 41.6339 -76.5272 332° Northwest 196 226 11,000  Level New York Center
10:36PM 41.6822 -76.5619 333° Northwest 196 226 11,000 -60 Level New York Center
10:37PM 41.7286 -76.5936 330° Northwest 201 231 10,900 -720 Descending New York Center
10:38PM 41.7847 -76.6375 302° West 206 237 9,600 -1,260 Descending New York Center
10:39PM 41.8167 -76.7072 304° West 206 237 8,400 -1,200 Descending New York Center
10:40PM 41.8508 -76.7742 307° West 211 243 7,200 -1,200 Descending New York Center
10:41PM 41.8850 -76.8358 328° Northwest 211 243 6,100 -1,200 Descending New York Center
10:42PM 41.9369 -76.8797 330° Northwest 211 243 4,800 -1,080 Descending New York Center
10:43PM 41.9892 -76.9208 329° Northwest 211 243 4,000 -420 Descending New York Center
10:44PM 42.0350 -76.9586 338° Northwest 217 250 4,000 -300 Level New York Center
10:45PM 42.0794 -76.9822 20° North 195 224 3,400 -780 Descending New York Center
10:46PM 42.1181 -76.9636 20° North 139 160 2,500 -900 Descending New York Center